Latest Weather Observations for Goulburn Airport

IDN60801

Issued at 12:52 am EST Sunday 3 July 2022 (issued every 10 minutes, with the page automatically refreshed every 10 minutes)

About weather observations | Map of weather stations | Latest weather observations for NSW | Other Formats
Station Details ID: 070330 Name: GOULBURN AIRPORT AWS Lat: -34.81 Lon: 149.73 Height: 640.0 m
Data from the previous 72 hours. | See also: Recent months at Goulburn Airport
Date/Time
EST
Temp
°C
App
Temp
°C
Dew
Point
°C
Rel
Hum
%
Delta-T
°C
Wind Press
QNH
hPa
Press
MSL
hPa
Rain since
9am
mm
Dir  Spd
km/h
Gust
km/h
Spd
kts
Gust
kts
03/12:30am 7.5 0.8 7.4 99 0.0 SSE 32 41 17 22 1022.6 1023.8 0.6
03/12:00am 7.4 0.7 7.3 99 0.0 SSE 32 39 17 21 1022.8 1024.0 0.6
 
Date/Time
EST
Temp
°C
App
Temp
°C
Dew
Point
°C
Rel
Hum
%
Delta-T
°C
Wind Press
QNH
hPa
Press
MSL
hPa
Rain since
9am
mm
Dir  Spd
km/h
Gust
km/h
Spd
kts
Gust
kts
02/11:30pm 7.5 0.7 7.1 97 0.2 SSE 32 41 17 22 1023.0 1024.2 0.4
02/11:00pm 7.6 0.7 7.2 97 0.2 SSE 33 50 18 27 1022.8 1024.0 0.4
02/10:30pm 7.6 0.7 7.2 97 0.2 SSE 33 43 18 23 1022.8 1024.0 0.4
02/10:00pm 7.8 1.0 6.9 94 0.4 SSE 32 41 17 22 1023.0 1024.2 0.4
02/09:30pm 7.9 0.5 6.7 92 0.6 SSE 35 50 19 27 1022.7 1023.9 0.4
02/09:00pm 7.9 0.8 6.5 91 0.7 SSE 33 44 18 24 1022.9 1024.1 0.4
02/08:30pm 7.8 -0.5 6.3 90 0.7 SSE 39 54 21 29 1022.8 1024.0 0.4
02/08:01pm 7.9 0.4 6.4 90 0.7 SSE 35 54 19 29 1022.9 1024.1 0.4
02/08:00pm 7.8 0.7 6.3 90 0.7 SSE 33 48 18 26 1022.8 1024.0 0.4
02/07:30pm 7.8 -0.5 6.3 90 0.7 SSE 39 50 21 27 1022.8 1024.0 0.4
02/07:00pm 8.1 0.5 5.7 85 1.1 SSE 35 54 19 29 1023.0 1024.2 0.4
02/06:50pm 8.1 0.9 5.7 85 1.1 SE 33 52 18 28 1023.1 1024.3 0.4
02/06:30pm 8.0 1.4 6.0 87 0.9 SE 30 43 16 23 1023.0 1024.2 0.4
02/06:00pm 8.2 1.2 6.0 86 1.0 SSE 32 44 17 24 1022.9 1024.1 0.4
02/05:30pm 8.2 1.3 6.3 88 0.9 SSE 32 44 17 24 1022.8 1024.0 0.4
02/05:00pm 8.3 0.8 6.1 86 1.0 SSE 35 50 19 27 1022.8 1024.0 0.4
02/04:53pm 8.2 1.6 6.0 86 1.0 SSE 30 50 16 27 1022.8 1024.0 0.4
02/04:45pm 8.2 1.6 6.0 86 1.0 SSE 30 41 16 22 1022.7 1023.9 0.4
02/04:30pm 8.3 1.3 5.8 84 1.2 SSE 32 48 17 26 1022.6 1023.8 0.4
02/04:16pm 8.5 1.5 6.0 84 1.2 SSE 32 50 17 27 1022.5 1023.7 0.4
02/04:00pm 8.5 0.9 5.8 83 1.3 SSE 35 48 19 26 1022.4 1023.6 0.4
02/03:30pm 8.4 1.3 6.4 87 1.0 SE 33 44 18 24 1022.6 1023.8 0.4
02/03:00pm 8.7 0.0 6.2 84 1.2 SE 41 56 22 30 1022.6 1023.8 0.4
02/02:30pm 8.8 1.6 6.1 83 1.3 SE 33 46 18 25 1022.6 1023.8 0.4
02/02:01pm 8.8 0.5 6.1 83 1.3 SE 39 54 21 29 1022.5 1023.7 0.4
02/02:00pm 8.8 0.5 6.3 84 1.2 SE 39 54 21 29 1022.6 1023.8 0.4
02/01:30pm 9.2 0.3 7.0 86 1.1 SSE 43 56 23 30 1022.5 1023.7 0.4
02/01:00pm 9.6 1.9 6.9 83 1.3 SSE 37 50 20 27 1022.7 1023.9 0.4
02/12:30pm 9.6 2.3 7.4 86 1.1 SSE 35 54 19 29 1023.1 1024.3 0.4
02/12:28pm 9.5 2.6 7.3 86 1.1 SSE 33 54 18 29 1023.1 1024.3 0.4
02/12:00pm 9.2 2.0 7.6 90 0.8 SE 35 50 19 27 1023.8 1025.0 0.4
02/11:43am 9.0 0.2 7.3 89 0.8 SSE 43 61 23 33 1023.7 1024.9 0.4
02/11:30am 8.9 1.4 7.8 93 0.5 SSE 37 52 20 28 1024.0 1025.2 0.4
02/11:00am 8.7 2.1 7.8 94 0.4 SSE 32 44 17 24 1024.2 1025.4 0.4
02/10:30am 8.5 2.1 8.4 99 0.0 SSE 32 43 17 23 1024.6 1025.8 0.4
02/10:00am 7.9 2.1 7.8 99 0.0 SSE 28 37 15 20 1024.7 1025.9 0.4
02/09:30am 7.8 1.2 7.7 99 0.0 SSE 32 43 17 23 1025.0 1026.1 0.2
02/09:00am 7.5 2.0 7.4 99 0.0 SSE 26 33 14 18 1024.9 1026.0 39.2
02/08:30am 7.3 2.9 7.2 99 0.0 S 20 28 11 15 1025.0 1026.1 39.0
02/08:00am 7.2 2.9 7.1 99 0.0 SSE 19 26 10 14 1025.1 1026.3 39.0
02/07:30am 6.9 2.6 6.8 99 0.0 S 19 28 10 15 1025.2 1026.4 39.0
02/07:00am 6.7 3.1 6.6 99 0.0 SSE 15 20 8 11 1025.1 1026.3 38.6
02/06:47am 6.7 3.4 6.6 99 0.0 SSE 13 17 7 9 1025.0 1026.1 37.8
02/06:30am 6.6 3.3 6.5 99 0.0 SSE 13 19 7 10 1025.0 1026.1 37.2
02/06:00am 6.6 2.6 6.5 99 0.0 SSE 17 22 9 12 1024.6 1025.8 37.0
02/05:30am 6.5 2.4 6.4 99 0.0 SSE 17 22 9 12 1024.5 1025.7 36.4
02/05:00am 6.4 1.9 6.3 99 0.0 SSE 19 24 10 13 1024.4 1025.6 35.2
02/04:30am 6.3 1.8 6.2 99 0.0 SSE 19 22 10 12 1024.5 1025.7 34.0
02/04:00am 6.3 1.8 6.2 99 0.0 SSE 19 26 10 14 1024.5 1025.7 32.6
02/03:30am 6.3 2.2 6.2 99 0.0 SSE 17 20 9 11 1024.7 1025.9 31.6
02/03:00am 6.3 2.2 6.2 99 0.0 SSE 17 20 9 11 1024.6 1025.8 30.4
02/02:38am 6.3 2.2 6.2 99 0.0 SSE 17 20 9 11 1024.7 1025.9 28.8
02/02:30am 6.3 2.2 6.2 99 0.0 SSE 17 20 9 11 1024.7 1025.9 28.4
02/02:21am 6.3 2.6 6.2 99 0.0 SSE 15 20 8 11 1025.0 1026.1 28.2
02/02:00am 6.3 2.6 6.2 99 0.0 SSE 15 20 8 11 1025.0 1026.1 27.2
02/01:30am 6.3 2.6 6.2 99 0.0 SSE 15 20 8 11 1025.1 1026.3 26.0
02/01:00am 6.3 1.8 6.2 99 0.0 SSE 19 26 10 14 1025.2 1026.4 25.4
02/12:52am 6.3 1.8 6.2 99 0.0 SSE 19 26 10 14 1025.3 1026.5 25.2
02/12:30am 6.4 1.9 6.3 99 0.0 SSE 19 22 10 12 1025.2 1026.4 24.2
02/12:00am 6.4 1.8 6.3 99 0.0 SSE 20 26 11 14 1025.4 1026.6 23.8
 
Date/Time
EST
Temp
°C
App
Temp
°C
Dew
Point
°C
Rel
Hum
%
Delta-T
°C
Wind Press
QNH
hPa
Press
MSL
hPa
Rain since
9am
mm
Dir  Spd
km/h
Gust
km/h
Spd
kts
Gust
kts
01/11:30pm 6.4 1.9 6.3 99 0.0 SSE 19 26 10 14 1025.4 1026.6 22.8
01/11:00pm 6.3 1.8 6.2 99 0.0 SSE 19 24 10 13 1025.6 1026.8 21.8
01/10:30pm 6.2 1.7 6.1 99 0.0 SSE 19 24 10 13 1025.8 1027.0 21.2
01/10:00pm 6.2 1.7 6.1 99 0.0 S 19 22 10 12 1025.7 1026.9 20.4
01/09:30pm 6.2 2.1 6.1 99 0.0 SSE 17 22 9 12 1025.8 1027.0 19.6
01/09:00pm 6.2 1.7 6.1 99 0.0 SSE 19 28 10 15 1026.0 1027.2 18.6
01/08:30pm 6.2 1.5 6.1 99 0.0 SSE 20 28 11 15 1026.0 1027.2 18.6
01/08:00pm 6.2 1.5 6.1 99 0.0 SSE 20 26 11 14 1025.8 1027.0 18.6
01/07:43pm 6.1 1.4 6.0 99 0.0 SSE 20 28 11 15 1025.7 1026.9 18.4
01/07:30pm 6.0 1.3 5.9 99 0.0 SSE 20 24 11 13 1025.6 1026.8 18.4
01/07:00pm 5.9 1.1 5.8 99 0.0 SSE 20 26 11 14 1025.6 1026.8 18.4
01/06:30pm 5.7 1.9 5.6 99 0.0 SSE 15 20 8 11 1025.6 1026.8 18.2
01/06:00pm 5.8 1.0 5.7 99 0.0 S 20 26 11 14 1025.4 1026.6 18.2
01/05:33pm 6.0 0.5 5.9 99 0.0 SSE 24 32 13 17 1025.3 1026.5 17.6
01/05:30pm 6.0 0.9 5.9 99 0.0 SSE 22 32 12 17 1025.2 1026.4 17.4
01/05:00pm 6.2 1.1 6.1 99 0.0 SSE 22 28 12 15 1025.2 1026.4 16.0
01/04:30pm 6.3 1.6 6.2 99 0.0 SSE 20 26 11 14 1025.1 1026.3 15.0
01/04:00pm 6.3 2.2 6.2 99 0.0 SSE 17 20 9 11 1025.1 1026.3 13.6
01/03:30pm 6.4 2.3 6.3 99 0.0 SSE 17 24 9 13 1024.9 1026.0 12.0
01/03:00pm 6.6 2.2 6.5 99 0.0 S 19 28 10 15 1024.7 1025.9 10.4
01/02:30pm 7.0 3.1 6.9 99 0.0 SSE 17 24 9 13 1024.6 1025.8 9.2
01/02:00pm 7.0 3.1 6.9 99 0.0 SSE 17 20 9 11 1025.0 1026.1 8.0
01/01:32pm 7.1 3.9 7.0 99 0.0 SSE 13 17 7 9 1025.2 1026.4 6.8
01/01:30pm 7.0 3.8 6.9 99 0.0 SSE 13 17 7 9 1025.2 1026.4 6.8
01/01:00pm 6.8 3.2 6.7 99 0.0 SE 15 19 8 10 1025.3 1026.5 5.8
01/12:59pm 6.8 3.2 6.7 99 0.0 SE 15 19 8 10 1025.3 1026.5 5.8
01/12:30pm 6.6 2.9 6.5 99 0.0 SSE 15 20 8 11 1025.7 1026.9 4.6
01/12:00pm 6.8 3.2 6.7 99 0.0 SSE 15 19 8 10 1026.0 1027.2 3.6
01/11:59am 6.7 3.1 6.6 99 0.0 SSE 15 19 8 10 1026.0 1027.2 3.6
01/11:30am 6.3 3.7 6.2 99 0.0 SE 9 15 5 8 1026.4 1027.7 3.2
01/11:00am 6.2 3.2 5.9 98 0.1 SSE 11 13 6 7 1026.6 1027.8 2.4
01/10:37am 6.0 2.5 5.6 97 0.2 SSE 13 17 7 9 1026.9 1028.1 2.0
01/10:30am 6.0 2.9 5.6 97 0.2 SSE 11 15 6 8 1027.0 1028.2 1.8
01/10:20am 5.8 2.7 5.4 97 0.2 ESE 11 17 6 9 1026.9 1028.1 1.6
01/10:00am 5.9 2.7 5.2 95 0.3 SE 11 20 6 11 1026.9 1028.1 0.8
01/09:30am 5.6 2.0 4.9 95 0.3 SE 13 19 7 10 1027.0 1027.9 0.2
01/09:00am 5.1 1.5 4.8 98 0.1 S 13 17 7 9 1026.6 1027.5 0.2
01/08:30am 4.9 0.8 4.5 97 0.2 SSW 15 20 8 11 1026.7 1027.6 0.2
01/08:00am 5.1 2.2 4.8 98 0.1 WSW 9 13 5 7 1026.6 1027.5 0.2
01/07:30am 4.9 2.4 4.5 97 0.2 SSW 7 9 4 5 1026.4 1027.4 0.2
01/07:00am 5.3 1.6 4.4 94 0.4 S 13 17 7 9 1026.2 1027.2 0.2
01/06:30am 5.0 0.2 4.6 97 0.2 SSE 19 26 10 14 1025.7 1026.6 0.2
01/06:00am 4.8 1.5 4.7 99 0.0 SW 11 15 6 8 1025.7 1026.6 0.0
01/05:30am 4.4 1.4 4.3 99 0.0 SSW 9 9 5 5 1025.1 1026.0 0.0
01/05:00am 3.8 1.3 3.7 99 0.0 SSE 6 9 3 5 1025.1 1026.0 0.0
01/04:30am 3.7 2.3 3.6 99 0.0 CALM 0 0 0 0 1025.0 1025.9 0.0
01/04:00am 3.5 2.1 3.4 99 0.0 CALM 0 2 0 1 1025.3 1026.2 0.0
01/03:46am 3.7 1.5 3.6 99 0.0 SE 4 7 2 4 1025.4 1026.3 0.0
01/03:30am 3.7 2.3 3.6 99 0.0 CALM 0 0 0 0 1025.6 1026.5 0.0
01/03:06am 3.7 1.5 3.6 99 0.0 SSW 4 9 2 5 1025.9 1026.8 0.0
01/03:03am 3.7 1.2 3.6 99 0.0 SE 6 9 3 5 1025.8 1026.7 0.0
01/03:00am 3.7 1.2 3.6 99 0.0 ESE 6 9 3 5 1025.9 1026.8 0.0
01/02:45am 3.7 1.9 3.6 99 0.0 SSE 2 7 1 4 1025.8 1026.7 0.0
01/02:40am 3.8 2.0 3.7 99 0.0 SSE 2 7 1 4 1025.9 1026.8 0.0
01/02:30am 3.8 1.1 3.7 99 0.0 SSE 7 9 4 5 1025.9 1026.8 0.0
01/02:07am 3.6 1.8 3.5 99 0.0 S 2 7 1 4 1025.9 1026.8 0.0
01/02:00am 3.7 1.2 3.6 99 0.0 SSW 6 7 3 4 1026.0 1027.0 0.0
01/01:30am 3.6 1.1 3.5 99 0.0 SSE 6 9 3 5 1025.8 1026.7 0.0
01/01:06am 3.3 1.5 3.2 99 0.0 SSE 2 7 1 4 1025.8 1026.7 0.0
01/01:00am 3.3 1.8 3.2 99 0.0 CALM 0 0 0 0 1025.8 1026.7 0.0
01/12:47am 3.1 1.6 3.0 99 0.0 CALM 0 0 0 0 1025.7 1026.6 0.0
01/12:30am 3.0 1.5 2.9 99 0.0 CALM 0 0 0 0 1025.9 1026.8 0.0
01/12:00am 3.4 0.8 3.3 99 0.0 S 6 9 3 5 1025.7 1026.6 0.0
 
Date/Time
EST
Temp
°C
App
Temp
°C
Dew
Point
°C
Rel
Hum
%
Delta-T
°C
Wind Press
QNH
hPa
Press
MSL
hPa
Rain since
9am
mm
Dir  Spd
km/h
Gust
km/h
Spd
kts
Gust
kts
30/11:40pm 3.1 0.3 3.0 99 0.0 SSW 7 9 4 5 1025.6 1026.5 0.0
30/11:30pm 2.7 0.4 2.6 99 0.0 SW 4 7 2 4 1025.6 1026.5 0.0
30/11:22pm 2.8 1.2 2.7 99 0.0 CALM 0 0 0 0 1025.7 1026.6 0.0
30/11:00pm 2.3 0.6 2.0 98 0.1 CALM 0 0 0 0 1025.8 1026.7 0.0
30/10:30pm 2.8 1.2 2.4 97 0.2 CALM 0 0 0 0 1025.6 1026.5 0.0
30/10:00pm 3.2 1.6 2.6 96 0.2 CALM 0 6 0 3 1025.7 1026.6 0.0
30/09:30pm 3.4 0.7 2.5 94 0.4 SSW 6 11 3 6 1025.8 1026.7 0.0
30/09:00pm 3.9 1.1 2.9 93 0.4 SSW 7 9 4 5 1025.7 1026.6 0.0
30/08:30pm 4.5 1.3 3.3 92 0.5 SSW 9 11 5 6 1025.5 1026.4 0.0
30/08:00pm 4.3 1.5 2.3 87 0.8 SSW 6 7 3 4 1025.3 1026.2 0.0
30/07:30pm 5.4 2.6 3.1 85 1.0 S 7 9 4 5 1025.1 1026.0 0.0
30/07:00pm 6.2 3.5 3.5 83 1.2 ESE 7 9 4 5 1024.6 1025.6 0.0
30/06:30pm 6.2 3.2 3.9 85 1.0 SE 9 11 5 6 1024.4 1025.3 0.0
30/06:00pm 6.9 5.1 3.7 80 1.4 ESE 2 7 1 4 1024.1 1025.0 0.0
30/05:30pm 7.2 4.6 3.4 77 1.7 E 6 11 3 6 1023.7 1024.6 0.0
30/05:00pm 8.0 4.9 3.7 74 1.9 E 9 13 5 7 1023.4 1024.3 0.0
30/04:30pm 9.5 7.0 3.7 67 2.6 E 6 7 3 4 1023.5 1024.4 0.0
30/04:00pm 10.7 8.2 3.5 61 3.3 ESE 6 7 3 4 1023.1 1024.0 0.0
30/03:30pm 11.4 8.7 2.7 55 3.9 E 6 9 3 5 1023.0 1023.9 0.0
30/03:00pm 11.5 8.5 2.3 53 4.1 E 7 9 4 5 1022.9 1023.8 0.0
30/02:30pm 12.0 9.7 2.5 52 4.3 SSE 4 9 2 5 1023.0 1023.9 0.0
30/02:00pm 12.6 10.4 3.3 53 4.3 NNE 4 7 2 4 1023.0 1023.9 0.0
30/01:30pm 11.8 9.0 3.1 55 4.0 NW 7 11 4 6 1023.3 1024.1 0.0
30/01:00pm 12.1 9.7 4.3 59 3.6 WSW 6 9 3 5 1023.5 1024.4 0.0
30/12:30pm 11.8 9.4 4.3 60 3.5 WSW 6 13 3 7 1023.6 1024.5 0.0
30/12:00pm 11.4 9.3 3.9 60 3.5 NW 4 9 2 5 1023.8 1024.7 0.0
30/11:30am 11.4 9.4 4.6 63 3.2 WNW 4 9 2 5 1024.0 1024.9 0.0
30/11:00am 10.7 8.1 4.4 65 2.9 W 7 13 4 7 1024.1 1025.0 0.0
30/10:30am 10.3 7.4 4.5 67 2.7 WNW 9 15 5 8 1024.4 1025.3 0.0
30/10:00am 9.4 6.6 5.2 75 2.0 WNW 9 13 5 7 1024.6 1025.6 0.0
30/09:30am 8.1 5.6 6.4 89 0.8 NW 9 11 5 6 1024.4 1025.3 0.0
30/09:00am 6.5 4.3 6.4 99 0.0 NNW 7 7 4 4 1024.3 1025.2 0.0
30/08:30am 5.4 3.0 5.3 99 0.0 N 7 9 4 5 1024.4 1025.3 0.0
30/08:00am 4.4 2.8 4.3 99 0.0 N 2 6 1 3 1024.1 1025.0 0.0
30/07:30am 3.7 1.1 3.4 98 0.1 N 6 9 3 5 1024.1 1025.0 0.0
30/07:00am 4.5 2.8 4.1 97 0.2 NNW 2 6 1 3 1023.5 1024.4 0.0
30/06:30am 5.0 2.7 4.6 97 0.2 NNW 6 7 3 4 1023.0 1023.9 0.0
30/06:00am 5.2 2.7 4.5 95 0.3 NW 7 11 4 6 1022.6 1023.5 0.0
30/05:30am 5.8 3.0 5.1 95 0.3 WNW 9 13 5 7 1022.1 1023.0 0.0
30/05:00am 5.7 2.1 5.1 96 0.3 WNW 13 15 7 8 1021.9 1022.7 0.0
30/04:30am 5.6 2.7 4.9 95 0.3 W 9 15 5 8 1022.2 1023.1 0.0
30/04:00am 5.7 1.4 5.1 96 0.3 NW 17 20 9 11 1021.7 1022.5 0.0
30/03:30am 5.5 2.2 4.8 95 0.3 WNW 11 15 6 8 1021.8 1022.6 0.0
30/03:00am 5.8 2.2 5.1 95 0.3 WSW 13 15 7 8 1021.8 1022.6 0.0
30/02:30am 5.8 2.6 5.1 95 0.3 W 11 17 6 9 1021.6 1022.4 0.0
30/02:00am 6.1 2.5 5.2 94 0.4 W 13 17 7 9 1021.3 1022.2 0.0
30/01:30am 5.7 2.5 5.0 95 0.3 W 11 17 6 9 1021.4 1022.3 0.0
30/01:00am 6.1 2.5 5.2 94 0.4 W 13 17 7 9 1021.8 1022.6 0.0

Other formats

Comma delimited format used in spreadsheet applications
http://www.bom.gov.au/fwo/IDN60801/IDN60801.95716.axf

JavaScript Object Notation format (JSON) in row-major order
http://www.bom.gov.au/fwo/IDN60801/IDN60801.95716.json

Data quality

Most of these data are generated automatically and are frequently updated. Quality checks on data are not normally performed. It is possible for incorrect values to appear. Refer to information at About Latest Weather Observations and please check the disclaimer before using these data.